Latest Weather Observations for Penrith

IDN60901

Issued at 9:02 pm EDT Saturday 31 January 2015 (issued every 10 minutes, with the page automatically refreshed every 10 minutes)

About weather observations | Map of Sydney area stations | Latest observations for Sydney area | Other Formats
Station Details ID: 067113 Name: PENRITH LAKES AWS Lat: -33.72 Lon: 150.68 Height: 24.7 m
Data from the previous 72 hours. | See also: Recent months at Penrith
Date/Time
EDT
Tmp

°C
App
Tmp
°C
Dew
Point
°C
Rel
Hum
%
Delta-T

°C
Wind Press
QNH
hPa
Press
MSL
hPa
Rain
since
9 am
mm
Dir
 
Spd
km/h
Gust
km/h
Spd
kts
Gust
kts
31/09:00pm 21.1 20.6 12.8 59 4.7 SSE 7 11 4 6 - - 0.0
31/08:30pm 21.5 20.5 12.4 56 5.1 SSE 9 11 5 6 - - 0.0
31/08:00pm 22.3 21.2 12.0 52 5.8 SSE 9 15 5 8 - - 0.0
31/07:30pm 23.4 22.1 12.4 50 6.3 SSE 11 17 6 9 - - 0.0
31/07:00pm 23.4 21.1 11.8 48 6.6 SSE 15 20 8 11 - - 0.0
31/06:30pm 23.9 21.6 11.6 46 6.9 SE 15 20 8 11 - - 0.0
31/06:00pm 24.1 21.2 11.1 44 7.3 SE 17 24 9 13 - - 0.0
31/05:30pm 25.2 22.5 11.7 43 7.7 SE 17 20 9 11 - - 0.0
31/05:00pm 25.6 22.4 11.4 41 8.0 ESE 19 24 10 13 - - 0.0
31/04:30pm 27.7 26.7 10.9 35 9.5 NNE 7 15 4 8 - - 0.0
31/04:00pm 28.4 27.9 10.6 33 10.1 NE 4 7 2 4 - - 0.0
31/03:30pm 27.9 27.1 11.0 35 9.6 N 6 13 3 7 - - 0.0
31/03:00pm 27.5 26.7 11.1 36 9.3 ESE 6 11 3 6 - - 0.0
31/02:30pm 26.7 26.3 11.2 38 8.8 SW 4 9 2 5 - - 0.0
31/02:00pm 26.5 25.4 10.6 37 8.9 E 7 13 4 7 - - 0.0
31/01:30pm 26.1 25.3 11.1 39 8.5 SSE 6 11 3 6 - - 0.0
31/01:00pm 25.9 25.0 10.5 38 8.6 NNW 6 9 3 5 - - 0.0
31/12:30pm 24.9 23.7 9.6 38 8.4 ESE 6 11 3 6 - - 0.0
31/12:00pm 24.4 23.7 9.9 40 8.0 SSE 4 7 2 4 - - 0.0
31/11:30am 23.8 22.7 10.1 42 7.5 SSW 6 11 3 6 - - 0.0
31/11:00am 23.8 22.8 9.0 39 8.0 ENE 4 9 2 5 - - 0.0
31/10:30am 22.8 21.9 9.2 42 7.3 SSE 4 7 2 4 - - 0.0
31/10:00am 22.0 21.3 8.5 42 7.1 ESE 2 4 1 2 - - 0.0
31/09:30am 21.8 21.2 10.3 48 6.3 SE 4 6 2 3 - - 0.0
31/09:00am 20.6 20.5 10.7 53 5.4 ESE 2 2 1 1 - - 0.0
31/08:30am 19.1 19.9 12.4 65 3.7 CALM 0 0 0 0 - - 0.0
31/08:00am 17.5 18.1 12.0 70 3.0 CALM 0 0 0 0 - - 0.0
31/07:30am 17.1 17.9 12.4 74 2.6 CALM 0 0 0 0 - - 0.0
31/07:00am 15.7 16.7 13.2 85 1.4 CALM 0 0 0 0 - - 0.0
31/06:30am 14.6 15.3 12.3 86 1.3 CALM 0 0 0 0 - - 0.0
31/05:30am 15.1 15.7 11.9 81 1.7 CALM 0 2 0 1 - - 0.0
31/05:00am 15.5 15.1 12.3 81 1.8 SSW 6 7 3 4 - - 0.0
31/04:30am 15.8 15.8 12.5 81 1.8 S 4 6 2 3 - - 0.0
31/04:00am 16.0 15.5 12.2 78 2.1 WSW 6 7 3 4 - - 0.0
31/03:30am 16.8 17.3 12.7 77 2.3 WNW 2 4 1 2 - - 0.0
31/03:00am 16.6 15.9 12.0 74 2.5 W 7 9 4 5 - - 0.0
31/02:00am 17.5 17.2 12.6 73 2.7 W 6 7 3 4 - - 0.0
31/01:30am 18.1 19.3 13.8 76 2.5 CALM 0 0 0 0 - - 0.0
31/01:00am 19.1 20.5 14.4 74 2.7 CALM 0 0 0 0 - - 0.0
31/12:30am 19.1 19.8 14.4 74 2.7 N 4 6 2 3 - - 0.0
 
Date/Time
EDT
Tmp

°C
App
Tmp
°C
Dew
Point
°C
Rel
Hum
%
Delta-T

°C
Wind Press
QNH
hPa
Press
MSL
hPa
Rain
since
9 am
mm
Dir
 
Spd
km/h
Gust
km/h
Spd
kts
Gust
kts
30/11:30pm 20.2 21.7 14.6 70 3.3 CALM 0 0 0 0 - - 0.0
30/11:00pm 20.4 21.2 13.6 65 3.9 N 2 4 1 2 - - 0.0
30/10:30pm 20.8 21.3 12.8 60 4.5 E 2 4 1 2 - - 0.0
30/10:00pm 20.6 20.6 12.3 59 4.7 ESE 4 6 2 3 - - 0.0
30/09:30pm 20.5 20.0 12.2 59 4.7 SE 6 7 3 4 - - 0.0
30/09:00pm 21.4 20.7 11.4 53 5.6 ESE 6 9 3 5 - - 0.0
30/08:30pm 22.5 20.6 10.6 47 6.5 E 11 17 6 9 - - 0.0
30/08:00pm 23.9 21.5 7.1 34 8.8 S 9 22 5 12 - - 0.0
30/07:30pm 24.8 22.1 5.6 29 9.8 S 9 15 5 8 - - 0.0
30/07:00pm 25.6 22.4 5.2 27 10.4 S 11 17 6 9 - - 0.0
30/06:30pm 26.4 22.2 3.6 23 11.3 SSW 15 22 8 12 - - 0.0
30/06:00pm 27.3 24.4 4.4 23 11.6 SSW 9 15 5 8 - - 0.0
30/05:30pm 27.3 24.2 5.6 25 11.2 S 11 17 6 9 - - 0.0
30/05:00pm 27.5 25.3 5.1 24 11.5 SSW 6 13 3 7 - - 0.0
30/04:30pm 27.4 24.2 6.8 27 10.9 S 13 20 7 11 - - 0.0
30/04:00pm 27.6 24.8 6.9 27 11.0 SSW 11 17 6 9 - - 0.0
30/03:30pm 26.6 23.3 6.6 28 10.5 SW 13 20 7 11 - - 0.0
30/03:00pm 26.0 24.1 8.9 34 9.3 N 9 15 5 8 - - 0.0
30/02:30pm 25.9 23.8 8.4 33 9.4 SSE 9 19 5 10 - - 0.0
30/02:00pm 25.6 24.0 8.6 34 9.2 ENE 7 15 4 8 - - 0.0
30/01:30pm 24.8 21.6 8.3 35 8.8 SE 15 26 8 14 - - 0.0
30/01:00pm 24.8 22.1 9.1 37 8.5 S 13 22 7 12 - - 0.0
30/12:30pm 24.3 21.4 8.3 36 8.5 S 13 22 7 12 - - 0.0
30/12:00pm 23.6 20.1 7.3 35 8.5 SSE 15 26 8 14 - - 0.0
30/11:30am 23.1 20.1 7.6 37 8.1 SSE 13 22 7 12 - - 0.0
30/11:00am 22.6 20.6 7.2 37 8.0 SSE 7 15 4 8 - - 0.0
30/10:30am 21.7 18.8 6.4 37 7.8 SSW 11 17 6 9 - - 0.0
30/10:00am 21.1 18.1 6.2 38 7.5 SSW 11 19 6 10 - - 0.0
30/09:30am 20.5 18.4 6.8 41 6.9 SW 7 15 4 8 - - 0.0
30/09:00am 19.9 17.1 7.0 43 6.5 WSW 11 22 6 12 - - 0.0
30/08:30am 18.3 17.2 8.6 53 5.0 N 4 7 2 4 - - 0.0
30/08:00am 17.5 17.0 9.4 59 4.2 ESE 2 4 1 2 - - 0.0
30/07:30am 16.3 15.7 10.4 68 3.1 E 4 6 2 3 - - 0.0
30/07:00am 14.6 14.0 10.4 76 2.2 ENE 4 6 2 3 - - 0.0
30/06:30am 14.1 13.3 9.5 74 2.4 ESE 4 6 2 3 - - 0.0
30/06:00am 14.7 12.9 7.0 60 3.8 WSW 6 9 3 5 - - 0.0
30/05:30am 15.0 13.4 8.0 63 3.5 SW 6 7 3 4 - - 0.0
30/05:00am 14.8 13.0 8.1 64 3.4 WSW 7 11 4 6 - - 0.0
30/04:30am 15.0 13.4 8.0 63 3.5 WSW 6 11 3 6 - - 0.0
30/04:00am 15.1 13.6 8.3 64 3.4 SSW 6 7 3 4 - - 0.0
30/03:30am 15.1 13.7 9.0 67 3.1 WSW 6 7 3 4 - - 0.0
30/03:00am 14.8 14.7 10.8 77 2.1 W 2 6 1 3 - - 0.0
30/02:30am 15.1 15.0 12.2 83 1.6 NNE 4 4 2 2 - - 0.0
30/02:00am 15.5 16.0 11.7 78 2.1 CALM 0 0 0 0 - - 0.0
30/01:30am 15.3 15.8 11.7 79 1.9 CALM 0 0 0 0 - - 0.0
30/01:00am 15.7 16.4 12.3 80 1.9 CALM 0 0 0 0 - - 0.0
30/12:30am 15.8 16.4 11.8 77 2.2 CALM 0 0 0 0 - - 0.0
30/12:00am 16.4 17.0 12.0 75 2.4 CALM 0 0 0 0 - - 0.0
 
Date/Time
EDT
Tmp

°C
App
Tmp
°C
Dew
Point
°C
Rel
Hum
%
Delta-T

°C
Wind Press
QNH
hPa
Press
MSL
hPa
Rain
since
9 am
mm
Dir
 
Spd
km/h
Gust
km/h
Spd
kts
Gust
kts
29/11:30pm 16.4 15.9 10.9 70 2.9 SSW 4 6 2 3 - - 0.0
29/11:00pm 16.6 16.1 10.9 69 3.1 SW 4 6 2 3 - - 0.0
29/10:30pm 17.6 16.5 10.5 63 3.8 SSW 7 13 4 7 - - 0.0
29/10:00pm 18.0 16.9 10.6 62 4.0 S 7 13 4 7 - - 0.0
29/09:30pm 18.3 17.2 10.7 61 4.1 SW 7 13 4 7 - - 0.0
29/09:00pm 18.5 17.7 11.1 62 4.0 SW 6 9 3 5 - - 0.0
29/08:30pm 19.2 17.7 10.7 58 4.6 S 9 13 5 7 - - 0.0
29/08:00pm 20.0 17.6 10.1 53 5.3 SE 13 22 7 12 - - 0.0
29/07:30pm 20.8 16.1 9.1 47 6.2 SE 24 30 13 16 - - 0.0
29/07:00pm 23.5 20.9 7.6 36 8.3 SSE 11 20 6 11 - - 0.0
29/06:30pm 23.2 19.6 6.9 35 8.4 S 15 19 8 10 - - 0.0
29/06:00pm 23.1 19.0 6.4 34 8.5 S 17 24 9 13 - - 0.0
29/05:30pm 24.4 20.4 6.6 32 9.2 S 17 26 9 14 - - 0.0
29/05:00pm 24.5 21.5 7.6 34 8.9 SSW 13 20 7 11 - - 0.0
29/04:30pm 24.3 20.5 7.4 34 8.9 S 17 26 9 14 - - 0.0
29/04:00pm 24.2 20.1 7.8 35 8.7 S 19 32 10 17 - - 0.0
29/03:30pm 24.0 20.1 7.2 34 8.8 S 17 24 9 13 - - 0.0
29/03:00pm 23.8 20.3 7.4 35 8.6 S 15 26 8 14 - - 0.0
29/02:30pm 23.6 19.3 6.8 34 8.7 SSW 19 30 10 16 - - 0.0
29/02:00pm 24.1 20.4 8.1 36 8.5 S 17 24 9 13 - - 0.0
29/01:30pm 23.8 20.1 7.8 36 8.4 SSW 17 26 9 14 - - 0.0
29/01:00pm 23.5 19.8 8.0 37 8.2 S 17 28 9 15 - - 0.0
29/12:30pm 22.2 17.8 6.4 36 8.0 SSW 19 32 10 17 - - 0.0
29/12:00pm 22.3 18.6 8.1 40 7.5 SW 17 24 9 13 - - 0.0
29/11:30am 21.2 17.7 7.1 40 7.2 SSW 15 30 8 16 - - 0.0
29/11:00am 21.0 17.0 8.3 44 6.6 SSW 19 32 10 17 - - 0.0
29/10:30am 20.3 16.2 7.7 44 6.5 SSW 19 30 10 16 - - 0.0
29/10:00am 19.8 15.0 7.2 44 6.4 SSW 22 35 12 19 - - 0.0
29/09:30am 19.2 15.1 7.9 48 5.8 SSW 19 28 10 15 - - 0.0
29/09:00am 18.6 14.3 7.7 49 5.6 SSW 20 32 11 17 - - 10.6
29/08:30am 17.8 13.7 7.8 52 5.1 SW 19 30 10 16 - - 10.6
29/08:00am 17.4 14.6 8.5 56 4.6 SSW 13 20 7 11 - - 10.6
29/07:30am 16.4 14.0 8.6 60 4.0 SSW 11 17 6 9 - - 10.6
29/07:00am 16.1 14.2 9.1 63 3.6 SSW 9 13 5 7 - - 10.6
29/06:30am 15.8 13.9 9.2 65 3.4 SSW 9 13 5 7 - - 10.6
29/06:00am 16.3 13.7 9.3 63 3.6 SSW 13 22 7 12 - - 10.6
29/05:30am 16.2 14.1 9.8 66 3.3 SSW 11 17 6 9 - - 10.6
29/05:00am 16.2 13.8 10.1 67 3.2 SW 13 19 7 10 - - 10.6
29/04:30am 16.2 14.2 10.1 67 3.2 SSW 11 17 6 9 - - 10.6
29/04:00am 16.1 13.8 10.4 69 3.0 SW 13 19 7 10 - - 10.6
29/03:30am 15.9 13.5 10.2 69 3.0 SSW 13 17 7 9 - - 10.6
29/03:00am 15.8 13.9 10.6 71 2.8 SW 11 17 6 9 - - 10.6
29/02:30am 15.6 14.1 10.4 71 2.7 SSW 9 13 5 7 - - 10.6
29/02:00am 15.6 14.1 10.6 72 2.6 S 9 15 5 8 - - 10.6
29/01:30am 16.5 14.6 10.4 67 3.2 SSW 11 17 6 9 - - 10.6
29/01:00am 16.9 14.6 10.3 65 3.5 SW 13 17 7 9 - - 10.6
29/12:30am 16.8 14.8 10.2 65 3.5 SW 11 19 6 10 - - 10.6
29/12:00am 16.7 14.7 10.3 66 3.4 SW 11 17 6 9 - - 10.6
 
Date/Time
EDT
Tmp

°C
App
Tmp
°C
Dew
Point
°C
Rel
Hum
%
Delta-T

°C
Wind Press
QNH
hPa
Press
MSL
hPa
Rain
since
9 am
mm
Dir
 
Spd
km/h
Gust
km/h
Spd
kts
Gust
kts
28/11:30pm 16.9 14.9 10.1 64 3.6 SSW 11 17 6 9 - - 10.6
28/11:00pm 16.8 15.3 10.6 67 3.3 SSW 9 17 5 9 - - 10.6
28/10:30pm 16.8 15.8 10.9 68 3.2 SSW 7 11 4 6 - - 10.6
28/10:00pm 17.3 15.6 11.1 67 3.3 SW 11 15 6 8 - - 10.6
28/09:30pm 17.4 15.7 11.2 67 3.4 SW 11 15 6 8 - - 10.6

Latest Capital City Observations: Canberra | Sydney | Melbourne | Brisbane | Adelaide | Perth | Hobart | Darwin

Other Formats:

Comma delimited format used in spreadsheet applications
http://www.bom.gov.au/fwo/IDN60901/IDN60901.94763.axf

JavaScript Object Notation format (JSON) in row-major order
http://www.bom.gov.au/fwo/IDN60901/IDN60901.94763.json